Time;durP1;ratioP1;P1;durP2;ratioP2;P2;SDS_P1;SDS_P2;PMS_P1;PMS_P2;Temp;Humidity;BMP_temperature;BMP_pressure;BME280_temperature;BME280_humidity;BME280_pressure;Samples;Min_cycle;Max_cycle;Signal;HPM_P1;HPM_P2
2022/01/29 00:00:03;;;;;;;;;;;;;;;10.17;100.00;99938.44;5081812;28;20429;-76
2022/01/29 00:02:38;;;;;;;;;;;;;;;10.18;100.00;99945.63;5092578;28;19931;-76
2022/01/29 00:05:06;;;;;;;;;;;;;;;10.08;100.00;99943.63;5093439;28;20015;-76
2022/01/29 00:07:33;;;;;;;;;;;;;;;10.16;100.00;99916.50;5092355;28;19931;-76
2022/01/29 00:10:04;;;;;;;;;;;;;;;10.11;100.00;99923.28;5093476;28;20474;-76
2022/01/29 00:12:35;;;;;;;;;;;;;;;10.10;100.00;99918.88;5093684;28;19924;-76
2022/01/29 00:15:02;;;;;;;;;;;;;;;10.02;100.00;99919.28;5075886;28;20386;-76
2022/01/29 00:17:30;;;;;;;;;;;;;;;9.99;100.00;99906.09;5093787;28;19924;-76
2022/01/29 00:19:58;;;;;;;;;;;;;;;10.05;100.00;99898.94;5093076;28;19924;-76
2022/01/29 00:22:25;;;;;;;;;;;;;;;9.96;100.00;99912.50;5093710;28;19946;-76
2022/01/29 00:24:52;;;;;;;;;;;;;;;9.97;100.00;99894.53;5092930;28;19962;-76
2022/01/29 00:27:21;;;;;;;;;;;;;;;10.05;100.00;99880.19;5093550;28;20294;-76
2022/01/29 00:29:49;;;;;;;;;;;;;;;9.92;100.00;99864.25;5093225;28;20356;-76
2022/01/29 00:32:16;;;;;;;;;;;;;;;10.12;100.00;99873.81;5093677;28;20496;-76
2022/01/29 00:34:43;;;;;;;;;;;;;;;10.21;100.00;99871.41;5092896;28;20363;-76
2022/01/29 00:37:10;;;;;;;;;;;;;;;10.05;100.00;99843.88;5092372;28;19928;-76
2022/01/29 00:39:39;;;;;;;;;;;;;;;10.22;100.00;99842.28;5092371;28;19925;-76
2022/01/29 00:42:06;;;;;;;;;;;;;;;10.07;100.00;99841.50;5093089;28;19923;-75
2022/01/29 00:44:42;;;;;;;;;;;;;;;10.18;100.00;99836.69;5097097;28;19924;-76
2022/01/29 00:47:09;;;;;;;;;;;;;;;10.26;100.00;99838.28;5095644;28;20010;-76
2022/01/29 00:49:36;;;;;;;;;;;;;;;10.23;100.00;99829.91;5096942;28;20040;-76
2022/01/29 00:52:04;;;;;;;;;;;;;;;10.27;100.00;99816.75;5097087;28;19931;-76
2022/01/29 00:54:31;;;;;;;;;;;;;;;10.34;100.00;99819.50;5079009;28;19928;-76
2022/01/29 00:56:58;;;;;;;;;;;;;;;10.32;100.00;99805.13;5097015;28;19924;-76
2022/01/29 00:59:25;;;;;;;;;;;;;;;10.42;100.00;99813.47;5092407;28;19955;-76
2022/01/29 01:01:53;;;;;;;;;;;;;;;10.44;100.00;99801.91;5075450;28;20441;-76
2022/01/29 01:04:20;;;;;;;;;;;;;;;10.37;100.00;99783.19;5074800;28;19944;-76
2022/01/29 01:06:47;;;;;;;;;;;;;;;10.45;100.00;99793.13;5076018;28;19924;-76
2022/01/29 01:09:14;;;;;;;;;;;;;;;10.49;100.00;99779.13;5075972;28;19924;-76
2022/01/29 01:11:41;;;;;;;;;;;;;;;10.48;100.00;99771.97;5075910;28;19928;-76
2022/01/29 01:14:08;;;;;;;;;;;;;;;10.49;100.00;99762.38;5075010;28;20563;-76
2022/01/29 01:16:35;;;;;;;;;;;;;;;10.41;100.00;99763.59;5058522;28;19924;-76
2022/01/29 01:19:02;;;;;;;;;;;;;;;10.33;100.00;99756.47;5075910;28;19986;-76
2022/01/29 01:21:29;;;;;;;;;;;;;;;10.37;100.00;99734.91;5076223;28;20019;-76
2022/01/29 01:23:56;;;;;;;;;;;;;;;10.37;100.00;99702.19;5076347;28;19951;-76
2022/01/29 01:26:24;;;;;;;;;;;;;;;10.28;100.00;99735.34;5058423;28;19931;-76
2022/01/29 01:28:51;;;;;;;;;;;;;;;10.30;100.00;99721.75;5074740;28;19929;-76
2022/01/29 01:31:18;;;;;;;;;;;;;;;10.24;100.00;99703.81;5076090;28;19932;-76
2022/01/29 01:33:47;;;;;;;;;;;;;;;10.21;100.00;99701.03;5074688;28;19931;-76
2022/01/29 01:36:18;;;;;;;;;;;;;;;10.26;100.00;99700.63;5075865;28;19931;-76
2022/01/29 01:38:53;;;;;;;;;;;;;;;10.24;100.00;99677.88;5076168;28;19924;-76
2022/01/29 01:41:24;;;;;;;;;;;;;;;10.14;100.00;99667.56;5076016;28;19925;-76
2022/01/29 01:43:58;;;;;;;;;;;;;;;10.11;100.00;99629.28;5075923;28;19928;-76
2022/01/29 01:46:28;;;;;;;;;;;;;;;10.18;100.00;99679.50;5075688;28;19931;-76
2022/01/29 01:48:55;;;;;;;;;;;;;;;10.18;100.00;99659.94;5075843;28;19924;-76
2022/01/29 01:51:23;;;;;;;;;;;;;;;10.19;100.00;99653.19;5075892;28;20018;-76
2022/01/29 01:53:50;;;;;;;;;;;;;;;10.23;100.00;99632.41;5073495;28;19932;-76
2022/01/29 01:56:18;;;;;;;;;;;;;;;10.25;100.00;99606.88;5075596;28;19939;-76
2022/01/29 01:58:46;;;;;;;;;;;;;;;10.30;100.00;99631.59;5074476;28;19924;-76
2022/01/29 02:01:13;;;;;;;;;;;;;;;10.26;100.00;99580.53;5093799;28;19924;-76
2022/01/29 02:03:40;;;;;;;;;;;;;;;10.20;100.00;99576.56;5095776;28;19977;-76
2022/01/29 02:06:08;;;;;;;;;;;;;;;10.26;100.00;99602.88;5094279;28;19924;-76
2022/01/29 02:08:35;;;;;;;;;;;;;;;10.25;100.00;99590.13;5095772;28;19931;-76
2022/01/29 02:11:03;;;;;;;;;;;;;;;10.14;100.00;99525.97;5077721;28;19932;-76
2022/01/29 02:13:30;;;;;;;;;;;;;;;10.21;100.00;99561.41;5095719;28;19931;-76
2022/01/29 02:15:58;;;;;;;;;;;;;;;10.22;100.00;99563.00;5095400;28;20413;-76
2022/01/29 02:18:25;;;;;;;;;;;;;;;10.23;100.00;99559.00;5095379;28;20019;-76
2022/01/29 02:20:52;;;;;;;;;;;;;;;10.34;100.00;99562.53;5094263;28;19936;-76
2022/01/29 02:23:21;;;;;;;;;;;;;;;10.32;100.00;99573.31;5095522;28;19931;-76
2022/01/29 02:25:48;;;;;;;;;;;;;;;10.32;100.00;99587.25;5095560;28;20275;-76
2022/01/29 02:28:20;;;;;;;;;;;;;;;10.31;100.00;99583.69;5095347;28;19924;-76
2022/01/29 02:30:56;;;;;;;;;;;;;;;10.33;100.00;99578.47;5095343;28;19947;-76
2022/01/29 02:33:23;;;;;;;;;;;;;;;10.34;100.00;99579.28;5095323;28;19936;-76
2022/01/29 02:35:51;;;;;;;;;;;;;;;10.37;100.00;99576.47;5093904;28;19924;-76
2022/01/29 02:38:20;;;;;;;;;;;;;;;10.30;100.00;99572.94;5095392;28;20064;-76
2022/01/29 02:40:54;;;;;;;;;;;;;;;10.30;100.00;99564.56;5094183;28;19924;-76
2022/01/29 02:43:26;;;;;;;;;;;;;;;10.34;100.00;99563.31;5095348;28;19994;-76
2022/01/29 02:45:54;;;;;;;;;;;;;;;10.34;100.00;99542.97;5093576;28;20027;-76
2022/01/29 02:48:22;;;;;;;;;;;;;;;10.40;100.00;99563.66;5094566;28;19924;-76
2022/01/29 02:50:50;;;;;;;;;;;;;;;10.22;100.00;99495.97;5095176;28;19924;-76
2022/01/29 02:53:17;;;;;;;;;;;;;;;10.22;100.00;99530.28;5094048;28;20019;-76
2022/01/29 02:55:44;;;;;;;;;;;;;;;10.28;100.00;99505.50;5094933;28;19997;-76
2022/01/29 02:58:12;;;;;;;;;;;;;;;10.28;100.00;99488.75;5094815;28;19924;-76
2022/01/29 03:00:39;;;;;;;;;;;;;;;10.18;100.00;99553.84;5063198;28;20328;-76
2022/01/29 03:03:07;;;;;;;;;;;;;;;10.13;100.00;99502.00;5074684;28;19928;-75
2022/01/29 03:05:34;;;;;;;;;;;;;;;10.14;100.00;99525.16;5056530;28;19924;-76
2022/01/29 03:08:01;;;;;;;;;;;;;;;10.15;100.00;99540.69;5056383;28;20015;-76
2022/01/29 03:10:28;;;;;;;;;;;;;;;10.19;100.00;99586.16;5073372;28;20015;-76
2022/01/29 03:12:55;;;;;;;;;;;;;;;10.21;100.00;99623.63;5074484;28;19924;-76
2022/01/29 03:15:23;;;;;;;;;;;;;;;10.18;100.00;99606.91;5074120;28;20026;-76
2022/01/29 03:17:50;;;;;;;;;;;;;;;10.32;100.00;99618.00;5072909;28;19928;-76
2022/01/29 03:20:17;;;;;;;;;;;;;;;10.20;100.00;99613.69;5074139;28;19940;-76
2022/01/29 03:22:44;;;;;;;;;;;;;;;10.22;100.00;99619.63;5074443;28;19924;-76
2022/01/29 03:25:11;;;;;;;;;;;;;;;10.28;100.00;99628.41;5074191;28;20042;-76
2022/01/29 03:27:38;;;;;;;;;;;;;;;10.34;100.00;99621.97;5056009;28;20148;-76
2022/01/29 03:30:06;;;;;;;;;;;;;;;10.29;100.00;99604.84;5072925;28;19924;-76
2022/01/29 03:32:33;;;;;;;;;;;;;;;10.22;100.00;99619.63;5074106;28;19932;-76
2022/01/29 03:35:00;;;;;;;;;;;;;;;10.25;100.00;99651.56;5072831;28;20001;-76
2022/01/29 03:37:27;;;;;;;;;;;;;;;10.33;100.00;99647.53;5073066;28;19924;-76
2022/01/29 03:39:59;;;;;;;;;;;;;;;10.11;100.00;99662.78;5073710;28;19993;-76
2022/01/29 03:42:29;;;;;;;;;;;;;;;10.17;100.00;99661.16;5073832;28;20444;-76
2022/01/29 03:44:58;;;;;;;;;;;;;;;10.01;100.00;99641.28;5073862;28;19924;-76
2022/01/29 03:47:25;;;;;;;;;;;;;;;10.06;100.00;99640.84;5073798;28;20043;-76
2022/01/29 03:49:52;;;;;;;;;;;;;;;10.13;100.00;99649.22;5073858;28;19924;-76
2022/01/29 03:52:19;;;;;;;;;;;;;;;10.23;100.00;99665.13;5073706;28;19932;-76
2022/01/29 03:54:46;;;;;;;;;;;;;;;10.27;100.00;99672.28;5072467;28;20421;-76
2022/01/29 03:57:13;;;;;;;;;;;;;;;10.27;100.00;99671.50;5073592;28;19974;-76
2022/01/29 03:59:41;;;;;;;;;;;;;;;10.34;100.00;99677.03;5061137;28;19928;-76
2022/01/29 04:02:08;;;;;;;;;;;;;;;10.32;100.00;99651.50;5094026;28;20027;-76
2022/01/29 04:04:35;;;;;;;;;;;;;;;10.37;100.00;99688.22;5093864;28;20334;-76
2022/01/29 04:07:09;;;;;;;;;;;;;;;10.37;100.00;99685.41;5093916;28;19950;-76
2022/01/29 04:09:39;;;;;;;;;;;;;;;10.55;100.00;99688.09;5092564;28;20287;-76
2022/01/29 04:12:06;;;;;;;;;;;;;;;10.45;100.00;99700.13;5092271;28;19932;-76
2022/01/29 04:14:38;;;;;;;;;;;;;;;10.47;100.00;99703.31;5093663;28;20001;-76
2022/01/29 04:17:05;;;;;;;;;;;;;;;10.42;100.00;99712.91;5094308;28;20341;-76
2022/01/29 04:19:34;;;;;;;;;;;;;;;10.42;100.00;99712.13;5097941;28;20386;-76
2022/01/29 04:22:02;;;;;;;;;;;;;;;10.50;100.00;99703.28;5096711;28;19924;-75
2022/01/29 04:24:29;;;;;;;;;;;;;;;10.59;100.00;99722.38;5097887;28;19947;-76
2022/01/29 04:26:57;;;;;;;;;;;;;;;10.60;100.00;99737.97;5097463;28;19924;-76
2022/01/29 04:29:27;;;;;;;;;;;;;;;10.55;100.00;99732.81;5097648;28;20266;-76
2022/01/29 04:31:59;;;;;;;;;;;;;;;10.57;100.00;99736.00;5063096;28;20015;-76
2022/01/29 04:34:26;;;;;;;;;;;;;;;10.52;100.00;99742.00;5097559;28;19962;-76
2022/01/29 04:36:53;;;;;;;;;;;;;;;10.61;100.00;99748.75;5097553;28;19928;-76
2022/01/29 04:39:23;;;;;;;;;;;;;;;10.58;100.00;99748.75;5095957;28;19928;-76
2022/01/29 04:41:50;;;;;;;;;;;;;;;10.58;100.00;99757.13;5097361;28;20008;-76
2022/01/29 04:44:18;;;;;;;;;;;;;;;10.46;100.00;99764.00;5097485;28;20360;-76
2022/01/29 04:46:45;;;;;;;;;;;;;;;10.44;100.00;99760.00;5096692;28;20377;-76
2022/01/29 04:49:12;;;;;;;;;;;;;;;10.52;100.00;99761.56;5096040;28;20291;-76
2022/01/29 04:51:39;;;;;;;;;;;;;;;10.62;100.00;99771.88;5097506;28;20300;-76
2022/01/29 04:54:07;;;;;;;;;;;;;;;10.49;100.00;99765.97;5097204;28;20325;-76
2022/01/29 04:56:34;;;;;;;;;;;;;;;10.67;100.00;99765.88;5097094;28;20271;-76
2022/01/29 04:59:02;;;;;;;;;;;;;;;10.63;100.00;99770.69;5097179;28;20424;-76
2022/01/29 05:01:29;;;;;;;;;;;;;;;10.59;100.00;99764.31;5055604;28;19925;-76
2022/01/29 05:03:56;;;;;;;;;;;;;;;10.76;100.00;99766.22;5056487;28;20269;-76
2022/01/29 05:06:23;;;;;;;;;;;;;;;10.57;100.00;99752.75;5055285;28;19944;-76
2022/01/29 05:08:51;;;;;;;;;;;;;;;10.74;100.00;99749.06;5071343;28;19925;-76
2022/01/29 05:11:18;;;;;;;;;;;;;;;10.75;100.00;99748.66;5056123;28;19924;-76
2022/01/29 05:13:46;;;;;;;;;;;;;;;10.75;100.00;99753.47;5088678;28;19925;-76
2022/01/29 05:27:00;;;;;;;;;;;;;;;10.95;100.00;99743.31;5083352;28;19963;-76
2022/01/29 05:29:30;;;;;;;;;;;;;;;10.88;100.00;99737.78;5096213;28;19931;-76
2022/01/29 05:31:58;;;;;;;;;;;;;;;10.83;100.00;99724.25;5095287;28;20004;-76
2022/01/29 05:34:26;;;;;;;;;;;;;;;10.91;100.00;99717.41;5095512;28;20321;-76
2022/01/29 05:36:53;;;;;;;;;;;;;;;10.82;100.00;99709.50;5096241;28;19924;-76
2022/01/29 05:39:21;;;;;;;;;;;;;;;10.71;100.00;99708.75;5085011;28;19932;-76
2022/01/29 05:41:48;;;;;;;;;;;;;;;10.57;100.00;99697.66;5074415;28;19925;-76
2022/01/29 05:44:16;;;;;;;;;;;;;;;10.66;100.00;99692.41;5075661;28;19931;-76
2022/01/29 05:46:43;;;;;;;;;;;;;;;10.64;100.00;99691.22;5074182;28;20443;-76
2022/01/29 05:49:10;;;;;;;;;;;;;;;10.75;100.00;99686.38;5075298;28;19932;-76
2022/01/29 05:52:03;;;;;;;;;;;;;;;10.60;100.00;99684.88;5075573;28;19924;-76
2022/01/29 05:54:30;;;;;;;;;;;;;;;10.68;100.00;99686.41;5075880;28;20011;-76
2022/01/29 05:56:57;;;;;;;;;;;;;;;10.82;100.00;99687.13;5075578;28;19931;-76
2022/01/29 05:59:24;;;;;;;;;;;;;;;10.72;100.00;99674.00;5075427;28;19986;-76
2022/01/29 06:01:51;;;;;;;;;;;;;;;10.78;100.00;99680.75;5057963;28;19924;-76
2022/01/29 06:04:19;;;;;;;;;;;;;;;10.74;100.00;99676.38;5074322;28;19974;-76
2022/01/29 06:06:46;;;;;;;;;;;;;;;10.72;100.00;99681.59;5075290;28;20035;-76
2022/01/29 06:09:13;;;;;;;;;;;;;;;10.74;100.00;99676.38;5074944;28;19974;-76
2022/01/29 06:11:40;;;;;;;;;;;;;;;10.80;100.00;99671.94;5076353;28;19978;-76
2022/01/29 06:14:09;;;;;;;;;;;;;;;10.67;100.00;99682.03;5057644;28;19925;-76
2022/01/29 06:16:36;;;;;;;;;;;;;;;10.76;100.00;99671.19;5075232;28;19931;-76
2022/01/29 06:19:03;;;;;;;;;;;;;;;10.62;100.00;99668.47;5074939;28;19925;-76
2022/01/29 06:21:31;;;;;;;;;;;;;;;10.80;100.00;99649.56;5075191;28;19924;-76
2022/01/29 06:23:59;;;;;;;;;;;;;;;10.83;100.00;99645.97;5075135;28;19931;-76
2022/01/29 06:26:25;;;;;;;;;;;;;;;10.89;100.00;99641.53;5077702;28;19932;-76
2022/01/29 06:28:52;;;;;;;;;;;;;;;10.79;100.00;99636.81;5093738;28;20299;-76
2022/01/29 06:31:19;;;;;;;;;;;;;;;10.80;100.00;99632.81;5095174;28;20387;-76
2022/01/29 06:33:48;;;;;;;;;;;;;;;10.85;100.00;99621.19;5095174;28;19987;-76
2022/01/29 06:36:15;;;;;;;;;;;;;;;10.65;100.00;99614.56;5093795;28;19971;-75
2022/01/29 06:38:42;;;;;;;;;;;;;;;10.80;100.00;99600.06;5093911;28;19974;-76
2022/01/29 06:41:35;;;;;;;;;;;;;;;10.85;100.00;99607.22;5094247;28;20514;-76
2022/01/29 06:44:02;;;;;;;;;;;;;;;10.88;100.00;99609.19;5094985;28;19928;-76
2022/01/29 06:46:29;;;;;;;;;;;;;;;10.96;100.00;99577.19;5094919;28;19970;-76
2022/01/29 06:48:56;;;;;;;;;;;;;;;10.95;100.00;99586.75;5094810;28;19928;-76
2022/01/29 06:51:24;;;;;;;;;;;;;;;10.89;100.00;99582.81;5094857;28;20306;-76
2022/01/29 06:53:51;;;;;;;;;;;;;;;10.94;100.00;99594.34;5094730;28;19976;-76
2022/01/29 06:56:18;;;;;;;;;;;;;;;11.07;100.00;99594.66;5094361;28;19924;-76
2022/01/29 06:58:45;;;;;;;;;;;;;;;11.03;100.00;99574.28;5094454;28;19931;-76
2022/01/29 07:01:32;;;;;;;;;;;;;;;10.91;100.00;99572.03;5094802;28;19924;-76
2022/01/29 07:03:59;;;;;;;;;;;;;;;11.00;100.00;99583.50;5093614;28;19973;-76
2022/01/29 07:06:26;;;;;;;;;;;;;;;11.14;100.00;99582.59;5094307;28;20387;-76
2022/01/29 07:08:54;;;;;;;;;;;;;;;11.00;100.00;99575.13;5094395;28;19924;-76
2022/01/29 07:11:23;;;;;;;;;;;;;;;11.09;100.00;99561.44;5094298;28;20375;-76
2022/01/29 07:14:00;;;;;;;;;;;;;;;10.99;100.00;99567.94;5094577;28;19932;-76
2022/01/29 07:16:28;;;;;;;;;;;;;;;11.09;100.00;99555.09;5093271;28;19959;-76
2022/01/29 07:18:55;;;;;;;;;;;;;;;11.09;100.00;99561.44;5093095;28;19932;-76
2022/01/29 07:21:22;;;;;;;;;;;;;;;11.04;100.00;99542.34;5092853;28;19953;-76
2022/01/29 07:23:50;;;;;;;;;;;;;;;11.00;100.00;99535.97;5077343;28;20388;-76
2022/01/29 07:26:17;;;;;;;;;;;;;;;11.17;100.00;99554.59;5076903;28;19929;-76
2022/01/29 07:28:44;;;;;;;;;;;;;;;11.07;100.00;99538.72;5075706;28;20027;-76
2022/01/29 07:31:11;;;;;;;;;;;;;;;11.09;100.00;99546.69;5075363;28;19925;-76
2022/01/29 07:33:38;;;;;;;;;;;;;;;11.05;100.00;99555.13;5093059;28;19931;-76
2022/01/29 07:36:06;;;;;;;;;;;;;;;11.17;100.00;99551.78;5092489;28;19932;-76
2022/01/29 07:38:33;;;;;;;;;;;;;;;10.90;100.00;99560.03;5092758;28;19931;-76
2022/01/29 07:41:00;;;;;;;;;;;;;;;10.98;100.00;99561.56;5085826;28;19976;-76
2022/01/29 07:43:27;;;;;;;;;;;;;;;10.89;100.00;99569.63;5062482;28;19925;-76
2022/01/29 07:45:54;;;;;;;;;;;;;;;10.92;100.00;99563.22;5062129;28;20356;-76
2022/01/29 07:48:21;;;;;;;;;;;;;;;11.02;100.00;99577.50;5063988;28;19924;-76
2022/01/29 07:50:48;;;;;;;;;;;;;;;11.06;100.00;99570.66;5092551;28;20018;-76
2022/01/29 07:53:15;;;;;;;;;;;;;;;11.00;100.00;99569.53;5093037;28;19935;-76
2022/01/29 07:55:43;;;;;;;;;;;;;;;11.07;100.00;99558.28;5093916;28;20279;-76
2022/01/29 07:58:10;;;;;;;;;;;;;;;11.19;100.00;99563.38;5093975;28;19947;-76
2022/01/29 08:00:37;;;;;;;;;;;;;;;11.07;100.00;99563.88;5093857;28;19945;-76
2022/01/29 08:03:04;;;;;;;;;;;;;;;11.09;100.00;99572.63;5093599;28;19928;-76
2022/01/29 08:05:34;;;;;;;;;;;;;;;11.15;100.00;99567.41;5092804;28;19999;-76
2022/01/29 08:11:19;;;;;;;;;;;;;;;11.08;100.00;99550.69;5073903;28;19960;-76
2022/01/29 08:13:46;;;;;;;;;;;;;;;11.05;100.00;99568.28;5073303;28;20368;-76
2022/01/29 08:16:14;;;;;;;;;;;;;;;11.16;100.00;99553.00;5073724;28;19967;-75
2022/01/29 08:18:42;;;;;;;;;;;;;;;11.34;100.00;99538.81;5073122;28;19968;-75
2022/01/29 08:21:11;;;;;;;;;;;;;;;11.15;100.00;99551.41;5072557;28;19963;-76
2022/01/29 08:23:38;;;;;;;;;;;;;;;11.22;100.00;99528.97;5073331;28;20318;-75
2022/01/29 08:26:05;;;;;;;;;;;;;;;11.10;100.00;99535.09;5074628;28;20350;-76
2022/01/29 08:28:33;;;;;;;;;;;;;;;11.41;100.00;99527.53;5073022;28;20027;-75
2022/01/29 08:31:00;;;;;;;;;;;;;;;11.26;100.00;99517.72;5073528;28;19978;-76
2022/01/29 08:33:28;;;;;;;;;;;;;;;11.04;100.00;99494.00;5087551;28;19924;-76
2022/01/29 08:35:57;;;;;;;;;;;;;;;11.22;100.00;99498.19;5075224;28;20296;-76
2022/01/29 08:38:25;;;;;;;;;;;;;;;11.10;100.00;99511.91;5092370;28;20397;-75
2022/01/29 08:40:53;;;;;;;;;;;;;;;11.26;100.00;99500.94;5093640;28;19931;-75
2022/01/29 08:43:20;;;;;;;;;;;;;;;11.28;100.00;99502.13;5093467;28;19947;-75
2022/01/29 08:45:48;;;;;;;;;;;;;;;11.31;100.00;99501.28;5093479;28;19924;-75
2022/01/29 08:48:16;;;;;;;;;;;;;;;11.21;100.00;99499.38;5093188;28;19930;-75
2022/01/29 08:50:43;;;;;;;;;;;;;;;11.24;100.00;99498.56;5077547;28;20264;-75
2022/01/29 08:53:14;;;;;;;;;;;;;;;11.24;100.00;99506.94;5052681;28;20015;-75
2022/01/29 08:55:41;;;;;;;;;;;;;;;11.03;100.00;99493.19;5067797;28;19924;-75
2022/01/29 08:58:08;;;;;;;;;;;;;;;10.88;100.00;99477.78;5074054;28;20022;-75
2022/01/29 09:00:36;;;;;;;;;;;;;;;11.13;100.00;99500.69;5071780;28;20348;-76
2022/01/29 09:03:04;;;;;;;;;;;;;;;10.96;100.00;99488.47;5073478;28;19970;-75
2022/01/29 09:05:31;;;;;;;;;;;;;;;11.13;100.00;99483.91;5075529;28;19924;-75
2022/01/29 09:07:58;;;;;;;;;;;;;;;11.02;100.00;99480.44;5076688;28;19978;-75
2022/01/29 09:10:27;;;;;;;;;;;;;;;11.07;100.00;99476.41;5083899;28;19931;-75
2022/01/29 09:12:54;;;;;;;;;;;;;;;11.28;100.00;99457.38;5096937;28;20347;-75
2022/01/29 09:15:21;;;;;;;;;;;;;;;11.10;100.00;99436.41;5097067;28;20367;-74
2022/01/29 09:17:49;;;;;;;;;;;;;;;11.26;100.00;99420.63;5096687;28;19952;-75
2022/01/29 09:20:16;;;;;;;;;;;;;;;11.28;100.00;99400.63;5096515;28;19973;-76
2022/01/29 09:22:43;;;;;;;;;;;;;;;11.38;100.00;99408.84;5087440;28;20023;-76
2022/01/29 09:25:10;;;;;;;;;;;;;;;11.54;100.00;99403.41;5079135;28;19924;-80
2022/01/29 09:27:38;;;;;;;;;;;;;;;11.34;100.00;99410.94;5076354;28;20032;-76
2022/01/29 09:30:06;;;;;;;;;;;;;;;11.30;100.00;99379.38;5075889;28;19939;-76
2022/01/29 09:32:33;;;;;;;;;;;;;;;11.39;100.00;99351.69;5075826;28;19924;-76
2022/01/29 09:35:00;;;;;;;;;;;;;;;11.41;100.00;99348.47;5073116;28;19924;-76
2022/01/29 09:37:28;;;;;;;;;;;;;;;11.35;100.00;99331.38;5074299;28;19929;-76
2022/01/29 09:39:56;;;;;;;;;;;;;;;11.45;100.00;99310.81;5074585;28;19924;-76
2022/01/29 09:42:23;;;;;;;;;;;;;;;11.39;100.00;99340.50;5073896;28;20402;-76
2022/01/29 09:44:52;;;;;;;;;;;;;;;11.46;100.00;99329.22;5073357;28;19929;-76
2022/01/29 09:47:20;;;;;;;;;;;;;;;11.56;100.00;99324.66;5107720;28;20607;-76
2022/01/29 09:49:47;;;;;;;;;;;;;;;11.63;100.00;99260.97;5075248;28;19989;-76
2022/01/29 09:52:15;;;;;;;;;;;;;;;11.66;100.00;99299.31;5075124;28;20326;-76
2022/01/29 09:54:46;;;;;;;;;;;;;;;11.79;100.00;99305.91;5074980;28;20007;-76
2022/01/29 09:57:13;;;;;;;;;;;;;;;11.85;100.00;99275.41;5074672;28;19924;-76
2022/01/29 09:59:40;;;;;;;;;;;;;;;11.92;100.00;99284.47;5074123;28;19925;-76
2022/01/29 10:02:15;;;;;;;;;;;;;;;12.05;100.00;99293.84;5074976;28;20087;-76
2022/01/29 10:04:47;;;;;;;;;;;;;;;12.01;100.00;99326.72;5107168;28;19928;-76
2022/01/29 10:07:18;;;;;;;;;;;;;;;12.02;100.00;99324.72;5074817;28;19932;-76
2022/01/29 10:09:46;;;;;;;;;;;;;;;11.93;100.00;99325.28;5074607;28;19932;-76
2022/01/29 10:12:17;;;;;;;;;;;;;;;11.91;100.00;99288.50;5074954;28;19924;-76
2022/01/29 10:14:46;;;;;;;;;;;;;;;11.94;100.00;99349.25;5073141;28;19929;-76
2022/01/29 10:17:14;;;;;;;;;;;;;;;11.84;100.00;99287.84;5074214;28;19931;-76
2022/01/29 10:19:42;;;;;;;;;;;;;;;12.02;100.00;99347.91;5074372;28;19931;-76
2022/01/29 10:22:20;;;;;;;;;;;;;;;11.94;100.00;99290.44;5106283;28;19925;-76
2022/01/29 10:24:48;;;;;;;;;;;;;;;11.89;100.00;99282.53;5077431;28;19924;-77
2022/01/29 10:27:16;;;;;;;;;;;;;;;12.07;100.00;99307.44;5076736;28;19982;-76
2022/01/29 10:30:00;;;;;;;;;;;;;;;12.05;100.00;99327.47;5075106;28;19987;-76
2022/01/29 10:32:29;;;;;;;;;;;;;;;12.08;100.00;99298.59;5074981;28;19925;-77
2022/01/29 10:34:56;;;;;;;;;;;;;;;12.15;100.00;99298.44;5073527;28;19924;-76
2022/01/29 10:37:24;;;;;;;;;;;;;;;12.16;100.00;99282.44;5073751;28;19928;-76
2022/01/29 10:39:53;;;;;;;;;;;;;;;12.21;100.00;99256.72;5073840;28;20395;-76
2022/01/29 10:42:21;;;;;;;;;;;;;;;12.19;100.00;99259.94;5074062;28;20389;-76
2022/01/29 10:44:50;;;;;;;;;;;;;;;12.13;100.00;99278.47;5074514;28;19928;-76
2022/01/29 10:47:17;;;;;;;;;;;;;;;11.98;100.00;99260.34;5073183;28;19975;-76
2022/01/29 10:49:52;;;;;;;;;;;;;;;11.91;100.00;99277.28;5089367;28;19924;-76
2022/01/29 10:52:25;;;;;;;;;;;;;;;11.50;100.00;99259.97;5088114;28;19939;-75
2022/01/29 10:54:59;;;;;;;;;;;;;;;11.63;100.00;99260.97;5077086;28;19924;-75
2022/01/29 10:57:36;;;;;;;;;;;;;;;11.56;100.00;99238.69;5074933;28;19924;-76
2022/01/29 11:00:05;;;;;;;;;;;;;;;11.49;100.00;99286.38;5054619;28;19925;-75
2022/01/29 11:02:33;;;;;;;;;;;;;;;11.36;100.00;99279.78;5105334;27;19924;-76
2022/01/29 11:05:02;;;;;;;;;;;;;;;11.36;100.00;99263.00;5094699;28;19928;-76
2022/01/29 11:07:31;;;;;;;;;;;;;;;11.46;100.00;99312.41;5094159;28;20917;-76
2022/01/29 11:10:00;;;;;;;;;;;;;;;11.41;100.00;99312.88;5094584;28;19927;-76
2022/01/29 11:12:30;;;;;;;;;;;;;;;11.27;100.00;99343.88;5076545;28;19928;-76
2022/01/29 11:14:59;;;;;;;;;;;;;;;11.52;100.00;99310.72;5078544;28;20011;-76
2022/01/29 11:17:27;;;;;;;;;;;;;;;11.78;100.00;99345.53;5104819;28;19920;-76
2022/01/29 11:19:54;;;;;;;;;;;;;;;11.66;100.00;99316.09;5073712;28;19927;-79
2022/01/29 11:22:26;;;;;;;;;;;;;;;11.51;100.00;99309.13;5071756;28;20010;-77
2022/01/29 11:25:01;;;;;;;10.77;1.85;;;;;;;11.32;100.00;99222.31;5070950;28;19926;-77
2022/01/29 11:27:31;;;;;;;4.68;1.50;;;;;;;11.14;100.00;99161.09;5072400;28;20032;-77
2022/01/29 11:30:09;;;;;;;8.38;1.75;;;;;;;11.28;100.00;99255.97;5072754;28;20040;-77
2022/01/29 11:32:40;;;;;;;13.33;2.53;;;;;;;11.18;100.00;99138.66;5071578;28;20044;-77
2022/01/29 11:35:22;;;;;;;11.73;2.38;;;;;;;11.09;100.00;99297.81;5072867;28;20396;-77
2022/01/29 11:37:53;;;;;;;12.73;2.30;;;;;;;10.92;100.00;99213.75;5071402;28;20123;-77
2022/01/29 11:40:33;;;;;;;20.40;2.97;;;;;;;10.69;100.00;99062.00;5072772;28;20040;-77
2022/01/29 11:43:06;;;;;;;17.00;3.27;;;;;;;10.67;100.00;99109.13;5072675;28;20036;-78
2022/01/29 11:45:50;;;;;;;15.20;2.95;;;;;;;10.75;100.00;99160.94;5071398;28;20040;-78
2022/01/29 11:48:24;;;;;;;16.15;2.95;;;;;;;10.83;100.00;99280.56;5088024;28;20036;-77
2022/01/29 11:50:53;;;;;;;16.20;3.30;;;;;;;10.43;100.00;99233.22;5072524;28;20488;-77
2022/01/29 11:53:22;;;;;;;28.55;5.80;;;;;;;10.14;100.00;99123.88;5071424;28;20052;-80
2022/01/29 11:55:54;;;;;;;26.38;4.45;;;;;;;9.99;100.00;99264.00;5072325;28;20051;-77
2022/01/29 11:58:28;;;;;;;106.40;57.08;;;;;;;9.98;100.00;99196.22;5071291;28;20060;-78
2022/01/29 12:00:59;;;;;;;21.75;6.20;;;;;;;9.97;100.00;99269.22;5072442;28;20037;-78
2022/01/29 12:03:35;;;;;;;31.83;6.35;;;;;;;9.80;100.00;99273.00;5072555;28;20063;-78
2022/01/29 12:09:07;;;;;;;42.28;8.23;;;;;;;9.67;100.00;99297.00;5072368;28;20040;-77
2022/01/29 12:11:39;;;;;;;33.65;5.30;;;;;;;9.62;100.00;99303.06;5070751;28;20040;-77
2022/01/29 12:14:12;;;;;;;30.13;5.47;;;;;;;9.81;100.00;99285.72;5072361;28;20064;-77
2022/01/29 12:16:57;;;;;;;27.58;6.13;;;;;;;9.55;100.00;99289.16;5072409;28;20040;-78
2022/01/29 12:19:51;;;;;;;36.25;6.72;;;;;;;9.77;100.00;99315.69;5071119;28;20056;-78
2022/01/29 12:22:26;;;;;;;33.65;7.18;;;;;;;9.65;100.00;99272.31;5070233;28;20135;-77
2022/01/29 12:24:56;;;;;;;30.42;8.05;;;;;;;9.51;100.00;99266.06;5071938;28;20043;-77
2022/01/29 12:27:23;;;;;;;26.95;5.80;;;;;;;9.71;100.00;99253.16;5071966;28;20044;-77
2022/01/29 12:29:51;;;;;;;50.75;7.95;;;;;;;9.76;100.00;99316.88;5071972;28;20044;-78
2022/01/29 12:32:18;;;;;;;28.55;7.07;;;;;;;9.60;100.00;99269.19;5072090;28;20060;-77
2022/01/29 12:34:55;;;;;;;39.28;6.45;;;;;;;9.66;100.00;99112.09;5071997;28;20063;-77
2022/01/29 12:37:23;;;;;;;36.60;6.00;;;;;;;9.62;100.00;99266.78;5070876;28;20051;-77
2022/01/29 12:40:06;;;;;;;36.60;6.65;;;;;;;9.59;100.00;99328.97;5074175;28;20051;-77
2022/01/29 12:42:45;;;;;;;40.70;7.45;;;;;;;9.80;100.00;99317.66;5074754;28;20075;-77
2022/01/29 12:45:12;;;;;;;41.35;7.13;;;;;;;9.65;100.00;99221.31;5076084;28;20058;-77
2022/01/29 12:47:40;;;;;;;;;;;;;;;9.73;100.00;99237.56;5074720;28;20040;-77
2022/01/29 12:50:07;;;;;;;27.93;6.70;;;;;;;9.67;100.00;99288.63;5058058;28;20290;-77
2022/01/29 12:52:35;;;;;;;36.87;6.37;;;;;;;9.65;100.00;99299.44;5075428;28;20401;-77